createdAt,value
2019-04-29T04:24:20.067Z,10.60
2019-04-29T04:33:08.694Z,10.40
2019-04-29T04:38:27.133Z,8.50
2019-04-29T06:02:33.217Z,14.30
2019-04-29T06:08:00.936Z,13.80
2019-04-29T06:13:26.080Z,12.90
2019-04-29T06:18:49.883Z,12.70
2019-04-29T06:24:23.815Z,14.90
2019-04-29T06:29:52.290Z,13.00
2019-04-29T06:35:10.516Z,13.80
2019-04-29T06:40:40.550Z,14.20
2019-04-29T06:46:23.130Z,16.70
2019-04-29T06:51:34.763Z,15.90
2019-04-29T06:56:54.691Z,15.10
2019-04-29T07:02:09.338Z,15.10
2019-04-29T07:07:24.807Z,17.70
2019-04-29T07:13:09.155Z,18.60
2019-04-29T07:18:15.933Z,14.30
2019-04-29T07:23:41.518Z,15.20
2019-04-29T07:28:53.215Z,16.80
2019-04-29T07:34:33.591Z,14.90
2019-04-29T07:39:53.859Z,16.20
2019-04-29T07:45:01.870Z,19.40
2019-04-29T07:50:10.128Z,21.00
2019-04-29T07:55:10.497Z,17.90
2019-04-29T08:00:12.762Z,17.70
2019-04-29T08:05:14.822Z,18.40
2019-04-29T08:10:24.846Z,14.20
2019-04-29T08:15:31.642Z,12.90
2019-04-29T08:23:43.394Z,14.80
2019-04-29T08:28:52.423Z,13.90
2019-04-29T08:36:51.874Z,13.70
2019-04-29T08:50:45.765Z,12.40
2019-04-29T08:55:48.342Z,11.00
2019-04-29T09:00:55.666Z,11.40
2019-04-29T09:06:05.343Z,10.70
2019-04-29T09:12:49.014Z,11.80
2019-04-29T09:17:59.597Z,11.20
2019-04-29T09:24:23.762Z,10.50
2019-04-29T09:29:26.416Z,10.60
2019-04-29T09:34:19.749Z,9.90
2019-04-29T09:41:30.446Z,10.50
2019-04-29T09:46:45.874Z,11.00
2019-04-29T09:51:59.707Z,10.30
2019-04-29T09:57:24.202Z,10.60
2019-04-29T10:02:12.305Z,10.60
2019-04-29T10:07:05.616Z,8.40
2019-04-29T10:12:15.677Z,12.50
2019-04-29T10:17:41.673Z,11.40
2019-04-29T10:23:26.427Z,12.80
2019-04-29T10:28:14.154Z,10.00
2019-04-29T10:33:23.104Z,9.00
2019-04-29T10:39:05.646Z,12.00
2019-04-29T10:44:10.770Z,9.30
2019-04-29T10:49:39.149Z,11.00
2019-04-29T10:55:54.959Z,10.80
2019-04-29T11:02:21.491Z,9.80
2019-04-29T11:07:26.294Z,9.40
2019-04-29T11:12:33.429Z,9.90
2019-04-29T11:17:44.359Z,9.10
2019-04-29T11:24:37.173Z,11.00
2019-04-29T11:29:27.141Z,8.50
2019-04-29T11:36:14.477Z,9.60
2019-04-29T11:42:01.574Z,10.00
2019-04-29T11:48:12.902Z,10.40
2019-04-29T11:54:24.624Z,9.60
2019-04-29T12:01:11.798Z,12.30
2019-04-29T12:08:15.828Z,9.20
2019-04-29T12:13:58.824Z,8.90
2019-04-29T12:19:41.638Z,8.90
2019-04-29T12:24:42.596Z,8.70
2019-04-29T12:30:24.278Z,7.60
2019-04-29T12:36:07.515Z,6.30
2019-04-29T12:41:03.458Z,7.70
2019-04-29T12:46:18.799Z,7.80
2019-04-29T12:54:13.892Z,7.70
2019-04-29T12:58:59.901Z,6.70
2019-04-29T13:04:18.986Z,6.10
2019-04-29T13:09:34.929Z,6.70
2019-04-29T13:15:02.187Z,7.80
2019-04-29T13:20:16.424Z,6.70
2019-04-29T13:25:26.503Z,8.50
2019-04-29T13:30:33.649Z,5.90
2019-04-29T13:35:49.672Z,6.30
2019-04-29T13:41:11.712Z,6.40
2019-04-29T13:46:23.266Z,6.80
2019-04-29T13:51:35.415Z,6.70
2019-04-29T13:56:55.833Z,7.10
2019-04-29T14:02:22.051Z,7.20
2019-04-29T14:07:32.371Z,5.90
2019-04-29T14:12:47.583Z,5.90
2019-04-29T14:17:52.621Z,6.10
2019-04-29T14:22:43.092Z,4.40
2019-04-29T14:27:35.738Z,4.40
2019-04-29T14:32:39.606Z,4.90
2019-04-29T14:37:54.749Z,6.30
2019-04-29T14:43:27.288Z,4.80
2019-04-29T14:48:24.958Z,4.10
2019-04-29T14:53:19.373Z,5.80
2019-04-29T14:59:14.809Z,6.00
2019-04-29T15:04:18.204Z,5.10
2019-04-29T15:09:23.876Z,5.40
2019-04-29T15:14:28.116Z,4.70
2019-04-29T15:19:30.079Z,4.60
2019-04-29T15:24:32.263Z,4.50
2019-04-29T15:29:40.812Z,4.50
2019-04-29T15:34:43.874Z,4.20
2019-04-29T15:39:59.568Z,5.00
2019-04-29T15:44:59.587Z,3.70
2019-04-29T15:50:00.602Z,5.30
2019-04-29T15:55:07.263Z,4.70
2019-04-29T16:00:21.768Z,4.20
2019-04-29T16:05:30.545Z,4.10
2019-04-29T16:10:37.691Z,3.80
2019-04-29T16:15:43.913Z,3.40
2019-04-29T16:20:34.199Z,3.60
2019-04-29T16:25:46.125Z,3.60
2019-04-29T16:30:51.654Z,4.10
2019-04-29T16:36:06.352Z,4.50
2019-04-29T16:41:12.228Z,4.30
2019-04-29T16:46:35.243Z,5.10
2019-04-29T16:51:40.627Z,3.90
2019-04-29T16:56:44.660Z,4.60
2019-04-29T17:01:46.722Z,4.80
2019-04-29T17:07:09.959Z,4.50
2019-04-29T17:11:59.222Z,4.30
2019-04-29T17:16:54.469Z,4.00
2019-04-29T17:21:50.714Z,5.00
2019-04-29T17:26:43.837Z,5.20
2019-04-29T17:31:55.696Z,6.80
2019-04-29T17:36:54.366Z,4.20
2019-04-29T17:41:56.879Z,4.30
2019-04-29T17:46:50.552Z,5.00
2019-04-29T17:51:43.201Z,5.00
2019-04-29T17:56:47.327Z,4.60
2019-04-29T18:01:44.501Z,4.70
2019-04-29T18:06:40.695Z,4.90
2019-04-29T18:11:48.816Z,4.10
2019-04-29T18:16:49.463Z,5.80
2019-04-29T18:21:47.280Z,6.60
2019-04-29T18:26:44.189Z,6.10
2019-04-29T18:31:53.447Z,7.60
2019-04-29T18:36:54.483Z,6.40
2019-04-29T18:41:54.857Z,5.50
2019-04-29T18:47:07.031Z,6.40
2019-04-29T18:52:25.732Z,9.50
2019-04-29T18:57:27.639Z,8.60
2019-04-29T19:02:25.658Z,10.90
2019-04-29T19:07:37.117Z,13.60
2019-04-29T19:12:39.345Z,8.10
2019-04-29T19:17:58.631Z,10.70
2019-04-29T19:23:05.650Z,9.40
2019-04-29T19:28:25.197Z,12.00
2019-04-29T19:33:42.112Z,12.20
2019-04-29T19:38:35.225Z,11.00
2019-04-29T19:43:38.228Z,13.90
2019-04-29T19:48:40.033Z,14.20
2019-04-29T19:53:49.608Z,15.00
2019-04-29T19:58:49.981Z,15.10
2019-04-29T20:04:05.684Z,17.10
2019-04-29T20:09:17.945Z,13.50
2019-04-29T20:14:37.774Z,15.30
2019-04-29T20:19:54.956Z,15.20
2019-04-29T20:25:07.056Z,13.50
2019-04-29T20:30:20.578Z,14.30
2019-04-29T20:35:28.265Z,13.10
2019-04-29T20:40:42.788Z,13.60
2019-04-29T20:45:57.906Z,10.20
2019-04-29T20:51:13.640Z,10.30
2019-04-29T20:56:28.928Z,10.00
2019-04-29T21:01:42.980Z,9.90
2019-04-29T21:07:00.229Z,9.90
2019-04-29T21:12:12.821Z,9.80
2019-04-29T21:17:31.790Z,9.10
2019-04-29T21:23:00.791Z,10.00
2019-04-29T21:28:11.595Z,11.10
2019-04-29T21:33:21.600Z,11.80
2019-04-29T21:38:35.190Z,14.50
2019-04-29T21:43:53.282Z,13.00
2019-04-29T21:49:04.953Z,12.80
2019-04-29T21:54:25.262Z,15.60
2019-04-29T21:59:35.725Z,14.00
2019-04-29T22:04:47.000Z,13.20
2019-04-29T22:10:35.075Z,16.50
2019-04-29T22:15:46.673Z,15.30
2019-04-29T22:20:59.013Z,17.90
2019-04-29T22:26:10.378Z,18.30
2019-04-29T22:31:33.657Z,17.40
2019-04-29T22:36:52.599Z,17.20
2019-04-29T22:42:08.817Z,15.40
2019-04-29T22:47:23.370Z,15.40
2019-04-29T22:52:45.286Z,14.80
2019-04-29T22:58:00.765Z,14.40
2019-04-29T23:03:25.804Z,16.10
2019-04-29T23:08:37.926Z,14.50
2019-04-29T23:13:49.027Z,15.00
2019-04-29T23:19:09.763Z,16.10
2019-04-29T23:24:26.018Z,16.30
2019-04-29T23:29:43.035Z,16.40
2019-04-29T23:34:57.051Z,16.40
2019-04-29T23:40:26.180Z,16.00
2019-04-29T23:45:44.969Z,19.50
2019-04-29T23:51:02.043Z,18.40
2019-04-29T23:56:15.938Z,19.40
